createdAt,value
2023-05-16T00:00:49.677Z,97.74
2023-05-16T00:01:49.732Z,97.83
2023-05-16T00:02:49.775Z,97.74
2023-05-16T00:03:49.737Z,97.74
2023-05-16T00:04:49.744Z,97.67
2023-05-16T00:05:49.634Z,97.67
2023-05-16T00:06:49.583Z,97.78
2023-05-16T00:07:49.608Z,97.88
2023-05-16T00:08:49.597Z,97.88
2023-05-16T00:09:49.559Z,97.98
2023-05-16T00:10:49.559Z,98.04
2023-05-16T00:11:49.556Z,98.04
2023-05-16T00:12:49.526Z,97.94
2023-05-16T00:13:49.580Z,97.78
2023-05-16T00:14:49.525Z,97.78
2023-05-16T00:15:49.526Z,97.78
2023-05-16T00:16:49.500Z,97.67
2023-05-16T00:17:49.560Z,97.67
2023-05-16T00:18:49.509Z,97.67
2023-05-16T00:19:49.453Z,97.67
2023-05-16T00:20:49.474Z,97.67
2023-05-16T00:21:49.451Z,97.67
2023-05-16T00:22:49.417Z,97.78
2023-05-16T00:23:49.453Z,97.88
2023-05-16T00:24:49.395Z,97.88
2023-05-16T00:25:49.420Z,98.04
2023-05-16T00:26:49.369Z,97.94
2023-05-16T00:27:49.368Z,98.08
2023-05-16T00:28:49.385Z,98.08
2023-05-16T00:29:49.405Z,98.19
2023-05-16T00:30:49.332Z,98.19
2023-05-16T00:31:49.408Z,98.14
2023-05-16T00:32:49.393Z,98.19
2023-05-16T00:33:49.308Z,98.19
2023-05-16T00:34:49.371Z,98.24
2023-05-16T00:35:49.303Z,98.14
2023-05-16T00:36:49.282Z,97.98
2023-05-16T00:37:49.254Z,98.08
2023-05-16T00:38:49.271Z,98.08
2023-05-16T00:39:49.243Z,98.08
2023-05-16T00:40:49.230Z,98.08
2023-05-16T00:41:49.217Z,98.08
2023-05-16T00:42:49.235Z,98.08
2023-05-16T00:43:49.259Z,98.08
2023-05-16T00:44:49.227Z,98.19
2023-05-16T00:45:49.196Z,98.08
2023-05-16T00:46:49.366Z,97.98
2023-05-16T00:47:49.212Z,98.08
2023-05-16T00:48:49.140Z,98.08
2023-05-16T00:49:49.138Z,98.19
2023-05-16T00:50:49.150Z,98.03
2023-05-16T00:51:49.155Z,97.92
2023-05-16T00:52:49.101Z,97.92
2023-05-16T00:53:49.089Z,98.03
2023-05-16T00:54:49.066Z,97.82
2023-05-16T00:55:49.102Z,97.92
2023-05-16T00:56:49.056Z,98.03
2023-05-16T00:57:49.054Z,98.03
2023-05-16T00:58:49.212Z,97.97
2023-05-16T00:59:49.080Z,97.97
2023-05-16T01:00:49.065Z,97.97
2023-05-16T01:01:49.076Z,97.97
2023-05-16T01:02:49.109Z,98.07
2023-05-16T01:03:49.247Z,98.07
2023-05-16T01:04:48.968Z,98.18
2023-05-16T01:05:49.013Z,98.28
2023-05-16T01:06:49.014Z,98.07
2023-05-16T01:07:48.964Z,98.18
2023-05-16T01:08:48.937Z,98.28
2023-05-16T01:09:48.921Z,97.77
2023-05-16T01:10:48.942Z,97.77
2023-05-16T01:11:48.888Z,97.77
2023-05-16T01:12:48.875Z,97.50
2023-05-16T01:13:48.900Z,97.50
2023-05-16T01:14:48.878Z,97.40
2023-05-16T01:15:48.877Z,97.50
2023-05-16T01:16:48.908Z,97.50
2023-05-16T01:17:48.867Z,97.61
2023-05-16T01:18:48.904Z,97.61
2023-05-16T01:19:48.824Z,97.71
2023-05-16T01:20:48.844Z,97.61
2023-05-16T01:21:48.791Z,97.71
2023-05-16T01:22:48.780Z,97.40
2023-05-16T01:23:48.762Z,97.24
2023-05-16T01:24:48.749Z,97.14
2023-05-16T01:25:48.785Z,96.94
2023-05-16T01:26:48.760Z,96.42
2023-05-16T01:27:48.710Z,95.75
2023-05-16T01:28:48.706Z,95.54
2023-05-16T01:29:48.695Z,95.54
2023-05-16T01:30:48.678Z,95.44
2023-05-16T01:31:48.769Z,95.14
2023-05-16T01:32:48.759Z,95.03
2023-05-16T01:33:48.659Z,94.93
2023-05-16T01:34:48.701Z,94.83
2023-05-16T01:35:48.634Z,94.73
2023-05-16T01:36:48.658Z,94.83
2023-05-16T01:37:48.631Z,94.73
2023-05-16T01:38:48.596Z,94.73
2023-05-16T01:39:55.627Z,94.62
2023-05-16T01:40:48.568Z,94.52
2023-05-16T01:41:48.656Z,94.42
2023-05-16T01:42:48.554Z,94.15
2023-05-16T01:43:48.586Z,94.05
2023-05-16T01:44:48.557Z,94.26
2023-05-16T01:45:48.536Z,94.46
2023-05-16T01:46:48.615Z,94.26
2023-05-16T01:47:48.618Z,94.26
2023-05-16T01:48:48.486Z,94.26
2023-05-16T01:49:48.483Z,94.36
2023-05-16T01:50:48.474Z,94.46
2023-05-16T01:51:48.508Z,94.46
2023-05-16T01:52:48.482Z,94.56
2023-05-16T01:53:48.442Z,94.62
2023-05-16T01:54:48.424Z,94.73
2023-05-16T01:55:48.415Z,94.52
2023-05-16T01:56:48.511Z,94.46
2023-05-16T01:57:48.405Z,94.36
2023-05-16T01:58:48.382Z,94.36
2023-05-16T01:59:48.383Z,94.46
2023-05-16T02:00:48.407Z,94.46
2023-05-16T02:01:48.380Z,94.56
2023-05-16T02:02:48.444Z,94.52
2023-05-16T02:03:48.396Z,94.62
2023-05-16T02:04:48.382Z,94.77
2023-05-16T02:05:48.312Z,94.83
2023-05-16T02:06:48.289Z,94.87
2023-05-16T02:07:48.292Z,94.87
2023-05-16T02:08:48.272Z,94.87
2023-05-16T02:09:48.338Z,94.67
2023-05-16T02:10:48.253Z,94.77
2023-05-16T02:11:48.248Z,94.77
2023-05-16T02:12:48.235Z,94.87
2023-05-16T02:13:48.230Z,94.87
2023-05-16T02:14:48.229Z,94.98
2023-05-16T02:15:48.239Z,95.07
2023-05-16T02:16:48.319Z,95.18
2023-05-16T02:17:48.280Z,95.28
2023-05-16T02:18:48.203Z,95.28
2023-05-16T02:19:48.438Z,95.39
2023-05-16T02:20:48.174Z,95.39
2023-05-16T02:21:48.191Z,95.39
2023-05-16T02:22:48.159Z,95.49
2023-05-16T02:23:48.112Z,95.49
2023-05-16T02:24:48.123Z,95.39
2023-05-16T02:25:48.126Z,95.28
2023-05-16T02:26:48.086Z,95.18
2023-05-16T02:27:48.071Z,95.18
2023-05-16T02:28:48.080Z,95.18
2023-05-16T02:29:48.076Z,95.18
2023-05-16T02:30:48.082Z,95.28
2023-05-16T02:31:48.030Z,95.24
2023-05-16T02:32:48.119Z,95.14
2023-05-16T02:33:48.130Z,95.14
2023-05-16T02:34:48.044Z,95.24
2023-05-16T02:35:48.003Z,95.14
2023-05-16T02:36:47.980Z,95.03
2023-05-16T02:37:47.991Z,94.93
2023-05-16T02:38:47.956Z,94.83
2023-05-16T02:39:48.054Z,94.83
2023-05-16T02:40:47.942Z,94.93
2023-05-16T02:41:47.941Z,94.93
2023-05-16T02:42:47.921Z,94.93
2023-05-16T02:43:47.901Z,94.93
2023-05-16T02:44:47.920Z,94.93
2023-05-16T02:45:47.948Z,94.93
2023-05-16T02:46:47.961Z,94.93
2023-05-16T02:47:47.895Z,94.93
2023-05-16T02:48:47.850Z,94.93
2023-05-16T02:49:47.829Z,95.03
2023-05-16T02:50:47.830Z,95.14
2023-05-16T02:51:47.839Z,95.14
2023-05-16T02:52:47.818Z,95.14
2023-05-16T02:53:47.800Z,95.14
2023-05-16T02:54:59.898Z,95.03
2023-05-16T02:55:48.773Z,94.73
2023-05-16T02:56:47.788Z,94.11
2023-05-16T02:57:47.771Z,94.01
2023-05-16T02:58:47.750Z,94.11
2023-05-16T02:59:47.730Z,94.01
2023-05-16T03:00:47.713Z,93.90
2023-05-16T03:01:47.840Z,93.90
2023-05-16T03:02:47.805Z,93.80
2023-05-16T03:03:47.835Z,93.60
2023-05-16T03:04:47.679Z,93.02
2023-05-16T03:05:47.684Z,93.23
2023-05-16T03:06:47.653Z,93.33
2023-05-16T03:07:47.648Z,93.23
2023-05-16T03:08:47.635Z,92.93
2023-05-16T03:09:47.632Z,92.82
2023-05-16T03:10:47.690Z,92.82
2023-05-16T03:11:47.662Z,92.82
2023-05-16T03:12:47.608Z,92.72
2023-05-16T03:13:47.602Z,92.51
2023-05-16T03:14:47.570Z,91.90
2023-05-16T03:15:47.577Z,91.90
2023-05-16T03:16:47.701Z,91.69
2023-05-16T03:17:47.587Z,91.49
2023-05-16T03:18:47.628Z,91.28
2023-05-16T03:19:47.517Z,91.08
2023-05-16T03:20:47.549Z,91.08
2023-05-16T03:21:47.546Z,91.08
2023-05-16T03:22:47.489Z,91.18
2023-05-16T03:23:47.484Z,90.91
2023-05-16T03:24:47.580Z,90.91
2023-05-16T03:25:47.503Z,91.02
2023-05-16T03:26:47.452Z,91.12
2023-05-16T03:27:47.429Z,90.91
2023-05-16T03:28:47.420Z,91.02
2023-05-16T03:29:47.406Z,91.12
2023-05-16T03:30:47.410Z,91.22
2023-05-16T03:31:47.520Z,91.22
2023-05-16T03:32:47.468Z,91.42
2023-05-16T03:33:47.377Z,91.33
2023-05-16T03:34:47.375Z,91.16
2023-05-16T03:35:47.359Z,91.16
2023-05-16T03:36:47.415Z,91.16
2023-05-16T03:37:47.328Z,91.06
2023-05-16T03:38:47.316Z,90.95
2023-05-16T03:39:47.304Z,90.95
2023-05-16T03:40:47.329Z,90.75
2023-05-16T03:41:47.298Z,90.85
2023-05-16T03:42:47.279Z,91.06
2023-05-16T03:43:47.316Z,91.06
2023-05-16T03:44:47.255Z,90.95
2023-05-16T03:45:47.360Z,90.85
2023-05-16T03:46:47.259Z,90.95
2023-05-16T03:47:47.240Z,90.95
2023-05-16T03:48:47.236Z,90.85
2023-05-16T03:49:47.270Z,90.44
2023-05-16T03:50:47.206Z,90.38
2023-05-16T03:51:47.174Z,90.28
2023-05-16T03:52:47.189Z,90.28
2023-05-16T03:53:47.199Z,90.28
2023-05-16T03:54:47.227Z,90.28
2023-05-16T03:55:48.745Z,90.38
2023-05-16T03:56:47.129Z,90.48
2023-05-16T03:57:47.113Z,90.59
2023-05-16T03:58:47.173Z,90.59
2023-05-16T03:59:47.140Z,90.59
2023-05-16T04:00:47.087Z,90.48
2023-05-16T04:01:47.134Z,90.48
2023-05-16T04:02:47.268Z,90.59
2023-05-16T04:03:47.047Z,90.69
2023-05-16T04:04:47.045Z,90.80
2023-05-16T04:05:47.062Z,90.89
2023-05-16T04:06:47.026Z,90.80
2023-05-16T04:07:47.029Z,90.80
2023-05-16T04:08:47.000Z,90.80
2023-05-16T04:09:46.987Z,91.00
2023-05-16T04:10:46.975Z,91.10
2023-05-16T04:11:46.964Z,91.10
2023-05-16T04:12:46.954Z,91.04
2023-05-16T04:13:47.095Z,91.04
2023-05-16T04:14:46.948Z,90.94
2023-05-16T04:15:46.924Z,90.83
2023-05-16T04:16:47.015Z,90.94
2023-05-16T04:17:46.960Z,91.14
2023-05-16T04:18:46.955Z,91.14
2023-05-16T04:19:46.885Z,91.14
2023-05-16T04:20:46.877Z,91.14
2023-05-16T04:21:46.853Z,91.25
2023-05-16T04:22:46.854Z,91.25
2023-05-16T04:23:46.876Z,91.04
2023-05-16T04:24:46.831Z,91.25
2023-05-16T04:25:46.814Z,91.25
2023-05-16T04:26:46.801Z,91.35
2023-05-16T04:27:46.795Z,91.55
2023-05-16T04:28:47.458Z,91.55
2023-05-16T04:29:46.802Z,91.45
2023-05-16T04:30:46.772Z,91.35
2023-05-16T04:31:46.803Z,91.35
2023-05-16T04:32:46.796Z,91.45
2023-05-16T04:33:46.728Z,91.45
2023-05-16T04:34:46.762Z,91.55
2023-05-16T04:35:46.712Z,91.45
2023-05-16T04:36:46.704Z,91.45
2023-05-16T04:37:46.693Z,91.45
2023-05-16T04:38:46.686Z,91.35
2023-05-16T04:39:46.739Z,91.35
2023-05-16T04:40:46.660Z,91.35
2023-05-16T04:41:46.670Z,91.45
2023-05-16T04:42:46.644Z,91.35
2023-05-16T04:43:46.672Z,91.35
2023-05-16T04:44:46.689Z,91.25
2023-05-16T04:45:46.607Z,91.20
2023-05-16T04:46:46.726Z,91.14
2023-05-16T04:47:46.634Z,91.04
2023-05-16T04:48:46.581Z,91.14
2023-05-16T04:49:46.568Z,91.25
2023-05-16T04:50:46.627Z,91.35
2023-05-16T04:51:46.547Z,91.51
2023-05-16T04:52:46.557Z,91.61
2023-05-16T04:53:46.517Z,91.51
2023-05-16T04:54:46.574Z,91.61
2023-05-16T04:55:46.510Z,91.55
2023-05-16T04:56:46.489Z,91.51
2023-05-16T04:57:46.516Z,91.51
2023-05-16T04:58:46.473Z,91.82
2023-05-16T04:59:48.035Z,92.03
2023-05-16T05:00:46.455Z,92.03
2023-05-16T05:01:46.523Z,91.72
2023-05-16T05:02:46.485Z,91.51
2023-05-16T05:03:48.322Z,91.51
2023-05-16T05:04:48.349Z,91.51
2023-05-16T05:05:46.394Z,91.61
2023-05-16T05:06:46.400Z,91.61
2023-05-16T05:07:46.413Z,91.72
2023-05-16T05:08:46.364Z,91.72
2023-05-16T05:09:46.378Z,91.72
2023-05-16T05:10:46.368Z,91.61
2023-05-16T05:11:46.331Z,91.20
2023-05-16T05:12:46.330Z,91.10
2023-05-16T05:13:46.344Z,91.10
2023-05-16T05:14:46.369Z,91.20
2023-05-16T05:15:46.284Z,91.31
2023-05-16T05:16:46.279Z,91.20
2023-05-16T05:17:46.363Z,90.59
2023-05-16T05:18:46.429Z,90.28
2023-05-16T05:19:46.336Z,90.38
2023-05-16T05:20:46.229Z,90.59
2023-05-16T05:21:46.212Z,90.80
2023-05-16T05:22:46.217Z,90.80
2023-05-16T05:23:46.197Z,90.69
2023-05-16T05:24:49.178Z,90.48
2023-05-16T05:25:46.177Z,90.48
2023-05-16T05:26:46.175Z,90.48
2023-05-16T05:27:46.157Z,90.59
2023-05-16T05:28:53.906Z,90.59
2023-05-16T05:29:47.138Z,90.55
2023-05-16T05:30:46.230Z,90.65
2023-05-16T05:31:46.227Z,90.65
2023-05-16T05:32:46.157Z,90.55
2023-05-16T05:33:46.085Z,90.24
2023-05-16T05:34:46.091Z,90.24
2023-05-16T05:35:46.105Z,90.85
2023-05-16T05:36:46.070Z,90.65
2023-05-16T05:37:46.095Z,90.61
2023-05-16T05:38:46.058Z,90.50
2023-05-16T05:39:46.029Z,90.30
2023-05-16T05:40:46.180Z,90.20
2023-05-16T05:41:46.006Z,89.99
2023-05-16T05:42:47.221Z,89.69
2023-05-16T05:43:45.982Z,89.48
2023-05-16T05:44:45.997Z,89.37
2023-05-16T05:45:45.983Z,88.86
2023-05-16T05:46:45.981Z,88.76
2023-05-16T05:47:45.982Z,88.76
2023-05-16T05:48:45.936Z,88.82
2023-05-16T05:49:45.928Z,88.21
2023-05-16T05:50:45.949Z,87.63
2023-05-16T05:51:45.907Z,86.81
2023-05-16T05:52:45.906Z,86.71
2023-05-16T05:53:45.870Z,86.91
2023-05-16T05:54:45.868Z,87.12
2023-05-16T05:55:45.871Z,86.91
2023-05-16T05:56:48.924Z,86.81
2023-05-16T05:57:45.828Z,86.19
2023-05-16T05:58:45.825Z,86.71
2023-05-16T05:59:45.804Z,86.98
2023-05-16T06:00:45.809Z,87.28
2023-05-16T06:01:45.826Z,87.28
2023-05-16T06:02:46.310Z,86.57
2023-05-16T06:03:45.769Z,86.46
2023-05-16T06:04:45.760Z,86.05
2023-05-16T06:05:49.332Z,85.64
2023-05-16T06:06:45.743Z,85.64
2023-05-16T06:07:45.729Z,85.44
2023-05-16T06:08:45.746Z,85.64
2023-05-16T06:09:45.718Z,85.95
2023-05-16T06:10:45.702Z,86.52
2023-05-16T06:11:47.914Z,86.01
2023-05-16T06:12:47.334Z,85.80
2023-05-16T06:13:45.659Z,85.19
2023-05-16T06:14:45.739Z,84.78
2023-05-16T06:15:45.649Z,84.99
2023-05-16T06:16:45.655Z,85.09
2023-05-16T06:17:45.665Z,85.39
2023-05-16T06:18:45.649Z,85.36
2023-05-16T06:19:45.593Z,84.95
2023-05-16T06:20:47.516Z,84.74
2023-05-16T06:21:45.576Z,84.74
2023-05-16T06:22:45.569Z,84.44
2023-05-16T06:23:45.555Z,84.33
2023-05-16T06:24:45.587Z,83.65
2023-05-16T06:25:45.536Z,83.86
2023-05-16T06:26:47.337Z,84.17
2023-05-16T06:27:47.507Z,84.33
2023-05-16T06:28:45.518Z,84.53
2023-05-16T06:29:45.491Z,84.33
2023-05-16T06:30:45.518Z,84.53
2023-05-16T06:31:45.521Z,84.44
2023-05-16T06:32:45.557Z,83.72
2023-05-16T06:33:45.451Z,83.20
2023-05-16T06:34:45.438Z,82.39
2023-05-16T06:35:45.429Z,81.98
2023-05-16T06:36:45.448Z,81.26
2023-05-16T06:37:47.044Z,80.85
2023-05-16T06:38:47.144Z,80.74
2023-05-16T06:39:45.400Z,80.64
2023-05-16T06:40:45.389Z,81.15
2023-05-16T06:41:45.375Z,81.63
2023-05-16T06:42:45.358Z,81.84
2023-05-16T06:43:45.349Z,81.01
2023-05-16T06:44:52.668Z,80.91
2023-05-16T06:45:45.330Z,81.22
2023-05-16T06:46:45.356Z,81.43
2023-05-16T06:47:45.317Z,81.43
2023-05-16T06:48:45.379Z,81.49
2023-05-16T06:49:45.322Z,82.31
2023-05-16T06:50:45.265Z,83.19
2023-05-16T06:51:45.268Z,81.24
2023-05-16T06:52:45.269Z,79.54
2023-05-16T06:53:45.237Z,78.52
2023-05-16T06:54:46.921Z,77.91
2023-05-16T06:55:45.252Z,78.11
2023-05-16T06:56:45.218Z,78.42
2023-05-16T06:57:45.203Z,78.31
2023-05-16T06:58:45.254Z,78.01
2023-05-16T06:59:50.214Z,77.73
2023-05-16T07:00:45.164Z,77.94
2023-05-16T07:01:45.257Z,78.25
2023-05-16T07:02:45.226Z,78.45
2023-05-16T07:03:45.197Z,79.24
2023-05-16T07:04:46.817Z,79.34
2023-05-16T07:05:45.118Z,78.31
2023-05-16T07:06:45.100Z,76.64
2023-05-16T07:07:45.090Z,76.37
2023-05-16T07:08:45.130Z,76.88
2023-05-16T07:09:45.069Z,76.78
2023-05-16T07:10:45.060Z,77.09
2023-05-16T07:11:45.056Z,77.19
2023-05-16T07:12:45.040Z,77.87
2023-05-16T07:13:46.592Z,78.28
2023-05-16T07:14:45.031Z,78.28
2023-05-16T07:15:45.003Z,77.97
2023-05-16T07:16:45.037Z,77.83
2023-05-16T07:17:45.029Z,76.54
2023-05-16T07:18:46.671Z,76.09
2023-05-16T07:19:44.962Z,76.61
2023-05-16T07:20:46.646Z,76.09
2023-05-16T07:21:44.949Z,74.97
2023-05-16T07:22:44.935Z,74.84
2023-05-16T07:23:44.966Z,74.43
2023-05-16T07:24:44.918Z,74.63
2023-05-16T07:25:44.919Z,72.48
2023-05-16T07:26:44.921Z,70.78
2023-05-16T07:27:44.993Z,70.78
2023-05-16T07:28:44.895Z,71.46
2023-05-16T07:29:44.867Z,71.36
2023-05-16T07:30:44.847Z,68.90
2023-05-16T07:31:44.882Z,69.01
2023-05-16T07:32:45.851Z,70.13
2023-05-16T07:33:44.825Z,70.54
2023-05-16T07:34:44.797Z,69.93
2023-05-16T07:35:44.787Z,69.01
2023-05-16T07:36:44.772Z,69.21
2023-05-16T07:37:46.686Z,68.90
2023-05-16T07:38:45.497Z,68.42
2023-05-16T07:39:44.746Z,68.42
2023-05-16T07:40:44.731Z,68.73
2023-05-16T07:41:44.725Z,68.32
2023-05-16T07:42:46.424Z,67.40
2023-05-16T07:43:44.704Z,68.01
2023-05-16T07:44:44.692Z,68.63
2023-05-16T07:45:44.735Z,68.52
2023-05-16T07:46:45.015Z,68.73
2023-05-16T07:47:44.692Z,68.60
2023-05-16T07:48:44.652Z,67.47
2023-05-16T07:49:44.637Z,67.47
2023-05-16T07:50:44.662Z,66.96
2023-05-16T07:51:44.613Z,67.68
2023-05-16T07:52:48.300Z,67.88
2023-05-16T07:53:44.592Z,68.29
2023-05-16T07:54:44.576Z,68.19
2023-05-16T07:55:44.572Z,66.75
2023-05-16T07:56:44.566Z,66.86
2023-05-16T07:57:46.498Z,67.37
2023-05-16T07:58:44.539Z,67.07
2023-05-16T07:59:44.598Z,66.62
2023-05-16T08:00:44.527Z,66.52
2023-05-16T08:01:44.513Z,65.40
2023-05-16T08:02:44.631Z,65.91
2023-05-16T08:03:46.253Z,66.11
2023-05-16T08:04:44.477Z,66.08
2023-05-16T08:05:44.507Z,65.77
2023-05-16T08:06:49.198Z,66.28
2023-05-16T08:07:47.593Z,64.89
2023-05-16T08:08:44.438Z,65.30
2023-05-16T08:09:44.420Z,66.42
2023-05-16T08:10:44.412Z,65.94
2023-05-16T08:11:44.402Z,66.25
2023-05-16T08:12:46.034Z,66.75
2023-05-16T08:13:44.380Z,66.66
2023-05-16T08:14:44.389Z,66.14
2023-05-16T08:15:44.487Z,65.53
2023-05-16T08:16:44.392Z,66.04
2023-05-16T08:17:44.356Z,65.94
2023-05-16T08:18:44.363Z,65.84
2023-05-16T08:19:44.320Z,66.14
2023-05-16T08:20:44.310Z,65.91
2023-05-16T08:21:46.084Z,65.91
2023-05-16T08:22:44.298Z,65.80
2023-05-16T08:23:44.271Z,65.19
2023-05-16T08:24:44.262Z,64.65
2023-05-16T08:25:44.277Z,64.86
2023-05-16T08:26:44.240Z,64.14
2023-05-16T08:27:44.294Z,64.72
2023-05-16T08:28:44.219Z,63.40
2023-05-16T08:29:44.218Z,63.90
2023-05-16T08:30:46.457Z,63.37
2023-05-16T08:31:44.262Z,62.65
2023-05-16T08:32:44.259Z,62.55
2023-05-16T08:33:45.967Z,61.53
2023-05-16T08:34:44.182Z,61.43
2023-05-16T08:35:44.178Z,61.83
2023-05-16T08:36:44.134Z,62.85
2023-05-16T08:37:44.127Z,61.94
2023-05-16T08:38:44.122Z,62.24
2023-05-16T08:39:44.152Z,60.61
2023-05-16T08:40:44.099Z,61.32
2023-05-16T08:41:44.079Z,61.53
2023-05-16T08:42:45.397Z,60.82
2023-05-16T08:43:44.088Z,61.43
2023-05-16T08:44:44.048Z,61.12
2023-05-16T08:45:46.104Z,60.38
2023-05-16T08:46:44.108Z,60.38
2023-05-16T08:47:44.032Z,61.09
2023-05-16T08:48:44.068Z,60.69
2023-05-16T08:49:44.014Z,60.35
2023-05-16T08:50:44.013Z,60.14
2023-05-16T08:51:43.976Z,60.45
2023-05-16T08:52:43.975Z,59.74
2023-05-16T08:53:47.176Z,59.43
2023-05-16T08:54:44.295Z,60.14
2023-05-16T08:55:43.984Z,60.96
2023-05-16T08:56:43.937Z,61.95
2023-05-16T08:57:43.913Z,60.83
2023-05-16T08:58:45.482Z,60.12
2023-05-16T08:59:43.897Z,59.71
2023-05-16T09:00:43.901Z,59.00
2023-05-16T09:01:43.902Z,58.89
2023-05-16T09:02:43.948Z,59.28
2023-05-16T09:03:43.918Z,59.07
2023-05-16T09:04:45.292Z,59.99
2023-05-16T09:05:43.872Z,61.11
2023-05-16T09:06:43.811Z,60.39
2023-05-16T09:07:43.818Z,59.28
2023-05-16T09:08:43.806Z,58.15
2023-05-16T09:09:45.496Z,57.54
2023-05-16T09:10:43.825Z,57.65
2023-05-16T09:11:43.764Z,58.26
2023-05-16T09:12:43.796Z,57.34
2023-05-16T09:13:43.759Z,58.15
2023-05-16T09:14:43.737Z,57.67
2023-05-16T09:15:51.994Z,58.28
2023-05-16T09:16:43.750Z,58.46
2023-05-16T09:17:46.806Z,59.28
2023-05-16T09:18:43.833Z,60.70
2023-05-16T09:19:43.751Z,60.98
2023-05-16T09:20:45.091Z,60.88
2023-05-16T09:21:43.655Z,59.73
2023-05-16T09:22:43.640Z,58.23
2023-05-16T09:23:43.670Z,58.44
2023-05-16T09:24:43.756Z,59.07
2023-05-16T09:25:43.617Z,59.99
2023-05-16T09:26:43.634Z,59.89
2023-05-16T09:27:43.596Z,60.09
2023-05-16T09:28:43.593Z,59.48
2023-05-16T09:29:43.602Z,60.09
2023-05-16T09:30:46.830Z,59.68
2023-05-16T09:31:43.653Z,58.97
2023-05-16T09:32:43.599Z,59.58
2023-05-16T09:33:43.531Z,59.89
2023-05-16T09:34:43.514Z,59.89
2023-05-16T09:35:45.489Z,60.30
2023-05-16T09:36:44.113Z,60.30
2023-05-16T09:37:43.483Z,60.70
2023-05-16T09:38:43.474Z,60.80
2023-05-16T09:39:43.461Z,60.80
2023-05-16T09:40:43.446Z,60.39
2023-05-16T09:41:45.223Z,60.50
2023-05-16T09:42:43.422Z,61.61
2023-05-16T09:43:43.428Z,62.13
2023-05-16T09:44:43.417Z,61.93
2023-05-16T09:45:43.450Z,61.41
2023-05-16T09:46:43.482Z,61.72
2023-05-16T09:47:43.432Z,61.61
2023-05-16T09:48:43.363Z,61.79
2023-05-16T09:49:43.354Z,61.59
2023-05-16T09:50:43.338Z,60.68
2023-05-16T09:51:43.334Z,60.37
2023-05-16T09:52:45.143Z,59.35
2023-05-16T09:53:43.323Z,60.68
2023-05-16T09:54:43.295Z,59.83
2023-05-16T09:55:43.298Z,59.05
2023-05-16T09:56:43.272Z,58.03
2023-05-16T09:57:43.302Z,57.82
2023-05-16T09:58:43.304Z,58.44
2023-05-16T09:59:43.245Z,59.05
2023-05-16T10:00:43.240Z,59.25
2023-05-16T10:01:43.265Z,59.25
2023-05-16T10:02:43.309Z,59.66
2023-05-16T10:03:43.363Z,59.55
2023-05-16T10:04:44.959Z,59.75
2023-05-16T10:05:43.180Z,59.45
2023-05-16T10:06:44.912Z,59.63
2023-05-16T10:07:43.160Z,60.03
2023-05-16T10:08:43.229Z,60.75
2023-05-16T10:09:43.174Z,59.80
2023-05-16T10:10:43.131Z,58.78
2023-05-16T10:11:43.186Z,58.38
2023-05-16T10:12:43.266Z,57.36
2023-05-16T10:13:43.134Z,57.87
2023-05-16T10:14:43.247Z,58.07
2023-05-16T10:15:43.075Z,58.28
2023-05-16T10:16:44.971Z,58.69
2023-05-16T10:17:43.091Z,57.06
2023-05-16T10:18:43.154Z,57.16
2023-05-16T10:19:43.044Z,57.06
2023-05-16T10:20:43.029Z,57.46
2023-05-16T10:21:43.071Z,58.17
2023-05-16T10:22:42.992Z,57.97
2023-05-16T10:23:43.197Z,57.97
2023-05-16T10:24:42.972Z,57.87
2023-05-16T10:25:42.971Z,58.38
2023-05-16T10:26:42.950Z,59.22
2023-05-16T10:27:42.951Z,58.61
2023-05-16T10:28:42.939Z,59.01
2023-05-16T10:29:53.513Z,59.86
2023-05-16T10:30:43.929Z,59.14
2023-05-16T10:31:42.952Z,59.96
2023-05-16T10:32:43.133Z,60.27
2023-05-16T10:33:42.922Z,60.77
2023-05-16T10:34:42.877Z,61.18
2023-05-16T10:35:42.912Z,61.49
2023-05-16T10:36:42.840Z,61.69
2023-05-16T10:37:42.851Z,60.88
2023-05-16T10:38:42.822Z,60.68
2023-05-16T10:39:42.850Z,61.15
2023-05-16T10:40:42.826Z,60.64
2023-05-16T10:41:46.149Z,60.85
2023-05-16T10:42:42.768Z,60.82
2023-05-16T10:43:44.569Z,61.02
2023-05-16T10:44:48.840Z,59.80
2023-05-16T10:45:43.840Z,60.11
2023-05-16T10:46:42.736Z,60.61
2023-05-16T10:47:42.749Z,60.72
2023-05-16T10:48:42.733Z,59.60
2023-05-16T10:49:43.782Z,60.03
2023-05-16T10:50:42.691Z,60.95
2023-05-16T10:51:42.674Z,61.36
2023-05-16T10:52:42.679Z,61.74
2023-05-16T10:53:42.658Z,62.55
2023-05-16T10:54:42.651Z,61.81
2023-05-16T10:55:42.676Z,60.18
2023-05-16T10:56:42.643Z,57.43
2023-05-16T10:57:42.652Z,58.02
2023-05-16T10:58:42.603Z,58.42
2023-05-16T10:59:42.585Z,58.33
2023-05-16T11:00:42.581Z,59.44
2023-05-16T11:01:42.705Z,59.44
2023-05-16T11:02:42.772Z,59.95
2023-05-16T11:03:45.809Z,58.63
2023-05-16T11:04:42.697Z,59.64
2023-05-16T11:05:42.520Z,58.94
2023-05-16T11:06:42.552Z,58.40
2023-05-16T11:07:42.494Z,58.29
2023-05-16T11:08:42.486Z,57.92
2023-05-16T11:09:44.152Z,58.83
2023-05-16T11:10:42.548Z,58.60
2023-05-16T11:11:45.622Z,59.82
2023-05-16T11:12:42.463Z,60.10
2023-05-16T11:13:42.503Z,60.20
2023-05-16T11:14:42.538Z,59.48
2023-05-16T11:15:42.465Z,58.80
2023-05-16T11:16:42.430Z,59.41
2023-05-16T11:17:44.739Z,58.63
2023-05-16T11:18:42.408Z,59.75
2023-05-16T11:19:42.414Z,60.76
2023-05-16T11:20:42.373Z,60.97
2023-05-16T11:21:42.348Z,60.56
2023-05-16T11:22:42.349Z,61.17
2023-05-16T11:23:42.325Z,60.76
2023-05-16T11:24:44.021Z,60.97
2023-05-16T11:25:42.306Z,60.25
2023-05-16T11:26:42.300Z,60.46
2023-05-16T11:27:42.290Z,61.57
2023-05-16T11:28:42.281Z,60.94
2023-05-16T11:29:42.265Z,61.04
2023-05-16T11:30:46.983Z,61.85
2023-05-16T11:31:42.299Z,61.55
2023-05-16T11:32:42.372Z,60.71
2023-05-16T11:33:42.234Z,59.59
2023-05-16T11:34:42.227Z,61.01
2023-05-16T11:35:42.248Z,58.47
2023-05-16T11:36:42.191Z,58.60
2023-05-16T11:37:42.207Z,59.11
2023-05-16T11:38:42.189Z,59.54
2023-05-16T11:39:42.229Z,59.95
2023-05-16T11:40:42.217Z,59.72
2023-05-16T11:41:44.189Z,59.92
2023-05-16T11:42:42.198Z,60.13
2023-05-16T11:43:42.120Z,60.43
2023-05-16T11:44:42.118Z,59.21
2023-05-16T11:45:42.097Z,60.02
2023-05-16T11:46:43.927Z,60.50
2023-05-16T11:47:42.139Z,58.88
2023-05-16T11:48:42.193Z,53.98
2023-05-16T11:49:42.047Z,53.98
2023-05-16T11:50:42.099Z,53.47
2023-05-16T11:51:42.038Z,54.49
2023-05-16T11:52:42.028Z,53.47
2023-05-16T11:53:42.026Z,54.05
2023-05-16T11:54:42.010Z,54.46
2023-05-16T11:55:42.683Z,53.83
2023-05-16T11:56:43.650Z,52.61
2023-05-16T11:57:41.969Z,51.60
2023-05-16T11:58:42.184Z,52.00
2023-05-16T11:59:41.946Z,52.92
2023-05-16T12:00:41.941Z,51.82
2023-05-16T12:01:41.931Z,51.62
2023-05-16T12:02:44.103Z,52.33
2023-05-16T12:03:42.044Z,53.17
2023-05-16T12:04:42.005Z,53.58
2023-05-16T12:05:41.994Z,54.28
2023-05-16T12:06:41.879Z,54.49
2023-05-16T12:07:41.947Z,54.28
2023-05-16T12:08:41.860Z,54.18
2023-05-16T12:09:41.850Z,54.51
2023-05-16T12:10:41.859Z,55.43
2023-05-16T12:11:41.912Z,55.93
2023-05-16T12:12:41.821Z,56.13
2023-05-16T12:13:41.798Z,55.43
2023-05-16T12:14:41.793Z,55.05
2023-05-16T12:15:41.809Z,55.76
2023-05-16T12:16:41.822Z,56.26
2023-05-16T12:17:43.080Z,56.67
2023-05-16T12:18:43.538Z,56.37
2023-05-16T12:19:41.734Z,56.98
2023-05-16T12:20:41.730Z,57.59
2023-05-16T12:21:41.713Z,57.18
2023-05-16T12:22:41.724Z,57.38
2023-05-16T12:23:41.758Z,57.28
2023-05-16T12:24:41.683Z,57.38
2023-05-16T12:25:41.712Z,57.59
2023-05-16T12:26:41.660Z,57.66
2023-05-16T12:27:42.038Z,57.35
2023-05-16T12:28:41.655Z,57.25
2023-05-16T12:29:41.672Z,57.64
2023-05-16T12:30:41.632Z,58.24
2023-05-16T12:31:41.920Z,56.82
2023-05-16T12:32:41.873Z,56.92
2023-05-16T12:33:41.607Z,57.03
2023-05-16T12:34:41.581Z,55.80
2023-05-16T12:35:41.590Z,55.71
2023-05-16T12:36:41.577Z,55.30
2023-05-16T12:37:41.591Z,54.79
2023-05-16T12:38:41.542Z,55.10
2023-05-16T12:39:41.568Z,55.60
2023-05-16T12:40:41.569Z,56.13
2023-05-16T12:41:41.518Z,55.63
2023-05-16T12:42:41.497Z,55.93
2023-05-16T12:43:41.474Z,56.13
2023-05-16T12:44:41.471Z,57.05
2023-05-16T12:45:41.507Z,56.44
2023-05-16T12:46:41.655Z,56.44
2023-05-16T12:47:41.500Z,56.95
2023-05-16T12:48:41.424Z,57.05
2023-05-16T12:49:41.414Z,56.37
2023-05-16T12:50:41.406Z,56.67
2023-05-16T12:51:41.418Z,56.98
2023-05-16T12:52:46.289Z,57.38